sensor_id;sensor_type;location;lat;lon;timestamp;temperature;humidity
64549;DHT22;49838;51.798;10.954;2023-02-13T00:02:03;14.00;43.80
64549;DHT22;49838;51.798;10.954;2023-02-13T00:04:31;14.00;43.80
64549;DHT22;49838;51.798;10.954;2023-02-13T00:06:58;14.00;43.80
64549;DHT22;49838;51.798;10.954;2023-02-13T00:09:26;13.90;43.70
64549;DHT22;49838;51.798;10.954;2023-02-13T00:11:53;13.90;43.70
64549;DHT22;49838;51.798;10.954;2023-02-13T00:14:21;13.90;43.70
64549;DHT22;49838;51.798;10.954;2023-02-13T00:16:48;13.90;43.70
64549;DHT22;49838;51.798;10.954;2023-02-13T00:19:15;13.80;43.70
64549;DHT22;49838;51.798;10.954;2023-02-13T00:21:42;13.80;43.80
64549;DHT22;49838;51.798;10.954;2023-02-13T00:24:09;13.80;43.80
64549;DHT22;49838;51.798;10.954;2023-02-13T00:26:38;13.80;43.80
64549;DHT22;49838;51.798;10.954;2023-02-13T00:29:06;13.80;43.80
64549;DHT22;49838;51.798;10.954;2023-02-13T00:31:33;13.80;43.80
64549;DHT22;49838;51.798;10.954;2023-02-13T00:34:00;13.80;43.70
64549;DHT22;49838;51.798;10.954;2023-02-13T00:36:27;13.70;43.70
64549;DHT22;49838;51.798;10.954;2023-02-13T00:38:55;13.70;43.70
64549;DHT22;49838;51.798;10.954;2023-02-13T00:41:22;13.70;43.70
64549;DHT22;49838;51.798;10.954;2023-02-13T00:43:50;13.70;43.80
64549;DHT22;49838;51.798;10.954;2023-02-13T00:46:18;13.70;43.80
64549;DHT22;49838;51.798;10.954;2023-02-13T00:48:45;13.70;44.30
64549;DHT22;49838;51.798;10.954;2023-02-13T00:51:12;13.70;43.70
64549;DHT22;49838;51.798;10.954;2023-02-13T00:53:39;13.60;43.70
64549;DHT22;49838;51.798;10.954;2023-02-13T00:56:07;13.60;43.70
64549;DHT22;49838;51.798;10.954;2023-02-13T00:58:34;13.60;43.70
64549;DHT22;49838;51.798;10.954;2023-02-13T01:01:02;13.60;43.70
64549;DHT22;49838;51.798;10.954;2023-02-13T01:03:30;13.60;43.70
64549;DHT22;49838;51.798;10.954;2023-02-13T01:05:57;13.60;43.70
64549;DHT22;49838;51.798;10.954;2023-02-13T01:08:24;13.60;43.70
64549;DHT22;49838;51.798;10.954;2023-02-13T01:10:53;13.60;43.70
64549;DHT22;49838;51.798;10.954;2023-02-13T01:13:21;13.50;43.60
64549;DHT22;49838;51.798;10.954;2023-02-13T01:15:48;13.50;43.80
64549;DHT22;49838;51.798;10.954;2023-02-13T01:18:18;13.50;43.80
64549;DHT22;49838;51.798;10.954;2023-02-13T01:20:54;13.50;43.80
64549;DHT22;49838;51.798;10.954;2023-02-13T01:23:22;13.50;43.80
64549;DHT22;49838;51.798;10.954;2023-02-13T01:25:49;13.50;43.80
64549;DHT22;49838;51.798;10.954;2023-02-13T01:28:17;13.40;43.80
64549;DHT22;49838;51.798;10.954;2023-02-13T01:30:44;13.40;43.80
64549;DHT22;49838;51.798;10.954;2023-02-13T01:33:11;13.40;43.80
64549;DHT22;49838;51.798;10.954;2023-02-13T01:35:49;13.40;43.80
64549;DHT22;49838;51.798;10.954;2023-02-13T01:38:16;13.40;43.80
64549;DHT22;49838;51.798;10.954;2023-02-13T01:40:44;13.40;43.80
64549;DHT22;49838;51.798;10.954;2023-02-13T01:43:13;13.40;43.90
64549;DHT22;49838;51.798;10.954;2023-02-13T01:45:40;13.40;43.90
64549;DHT22;49838;51.798;10.954;2023-02-13T01:48:10;13.40;43.90
64549;DHT22;49838;51.798;10.954;2023-02-13T01:50:42;13.40;44.00
64549;DHT22;49838;51.798;10.954;2023-02-13T01:53:16;13.30;44.00
64549;DHT22;49838;51.798;10.954;2023-02-13T01:55:46;13.30;44.00
64549;DHT22;49838;51.798;10.954;2023-02-13T01:58:17;13.30;43.90
64549;DHT22;49838;51.798;10.954;2023-02-13T02:00:48;13.30;43.90
64549;DHT22;49838;51.798;10.954;2023-02-13T02:03:17;13.30;43.90
64549;DHT22;49838;51.798;10.954;2023-02-13T02:05:50;13.40;44.00
64549;DHT22;49838;51.798;10.954;2023-02-13T02:08:21;13.40;44.00
64549;DHT22;49838;51.798;10.954;2023-02-13T02:10:49;13.40;44.00
64549;DHT22;49838;51.798;10.954;2023-02-13T02:13:17;13.30;44.00
64549;DHT22;49838;51.798;10.954;2023-02-13T02:15:46;13.30;44.00
64549;DHT22;49838;51.798;10.954;2023-02-13T02:18:15;13.30;44.00
64549;DHT22;49838;51.798;10.954;2023-02-13T02:23:55;13.30;44.10
64549;DHT22;49838;51.798;10.954;2023-02-13T02:29:59;13.30;44.00
64549;DHT22;49838;51.798;10.954;2023-02-13T02:32:57;13.30;44.00
64549;DHT22;49838;51.798;10.954;2023-02-13T02:35:33;13.20;43.90
64549;DHT22;49838;51.798;10.954;2023-02-13T02:38:12;13.20;43.90
64549;DHT22;49838;51.798;10.954;2023-02-13T02:40:52;13.20;43.90
64549;DHT22;49838;51.798;10.954;2023-02-13T02:43:29;13.20;44.00
64549;DHT22;49838;51.798;10.954;2023-02-13T02:46:08;13.20;44.00
64549;DHT22;49838;51.798;10.954;2023-02-13T02:48:42;13.20;44.00
64549;DHT22;49838;51.798;10.954;2023-02-13T02:51:39;13.10;43.90
64549;DHT22;49838;51.798;10.954;2023-02-13T02:54:16;13.20;44.00
64549;DHT22;49838;51.798;10.954;2023-02-13T02:57:09;13.20;44.00
64549;DHT22;49838;51.798;10.954;2023-02-13T02:59:40;13.20;44.00
64549;DHT22;49838;51.798;10.954;2023-02-13T03:02:27;13.20;44.10
64549;DHT22;49838;51.798;10.954;2023-02-13T03:05:16;13.20;44.00
64549;DHT22;49838;51.798;10.954;2023-02-13T03:08:04;13.20;44.00
64549;DHT22;49838;51.798;10.954;2023-02-13T03:10:34;13.20;44.00
64549;DHT22;49838;51.798;10.954;2023-02-13T03:13:28;13.20;44.00
64549;DHT22;49838;51.798;10.954;2023-02-13T03:16:03;13.20;43.90
64549;DHT22;49838;51.798;10.954;2023-02-13T03:18:49;13.20;43.90
64549;DHT22;49838;51.798;10.954;2023-02-13T03:21:42;13.20;43.90
64549;DHT22;49838;51.798;10.954;2023-02-13T03:24:33;13.20;43.90
64549;DHT22;49838;51.798;10.954;2023-02-13T03:27:10;13.20;43.90
64549;DHT22;49838;51.798;10.954;2023-02-13T03:30:09;13.20;43.90
64549;DHT22;49838;51.798;10.954;2023-02-13T03:32:44;13.20;44.10
64549;DHT22;49838;51.798;10.954;2023-02-13T03:35:21;13.10;44.00
64549;DHT22;49838;51.798;10.954;2023-02-13T03:38:19;13.10;44.00
64549;DHT22;49838;51.798;10.954;2023-02-13T03:40:52;13.10;44.10
64549;DHT22;49838;51.798;10.954;2023-02-13T03:43:44;13.10;44.10
64549;DHT22;49838;51.798;10.954;2023-02-13T03:46:18;13.10;44.10
64549;DHT22;49838;51.798;10.954;2023-02-13T03:48:46;13.00;44.00
64549;DHT22;49838;51.798;10.954;2023-02-13T03:51:32;13.00;44.00
64549;DHT22;49838;51.798;10.954;2023-02-13T03:54:06;13.00;44.10
64549;DHT22;49838;51.798;10.954;2023-02-13T03:56:42;13.00;44.00
64549;DHT22;49838;51.798;10.954;2023-02-13T03:59:29;13.00;44.10
64549;DHT22;49838;51.798;10.954;2023-02-13T04:02:00;13.00;44.00
64549;DHT22;49838;51.798;10.954;2023-02-13T04:04:35;12.90;44.00
64549;DHT22;49838;51.798;10.954;2023-02-13T04:07:08;12.90;44.00
64549;DHT22;49838;51.798;10.954;2023-02-13T04:09:55;12.90;44.00
64549;DHT22;49838;51.798;10.954;2023-02-13T04:12:27;13.00;44.00
64549;DHT22;49838;51.798;10.954;2023-02-13T04:15:03;13.00;44.00
64549;DHT22;49838;51.798;10.954;2023-02-13T04:17:39;13.00;44.00
64549;DHT22;49838;51.798;10.954;2023-02-13T04:20:09;13.00;44.00
64549;DHT22;49838;51.798;10.954;2023-02-13T04:22:40;12.90;44.00
64549;DHT22;49838;51.798;10.954;2023-02-13T04:25:10;12.90;44.00
64549;DHT22;49838;51.798;10.954;2023-02-13T04:27:38;12.90;44.00
64549;DHT22;49838;51.798;10.954;2023-02-13T04:30:06;12.90;44.00
64549;DHT22;49838;51.798;10.954;2023-02-13T04:32:35;12.90;44.10
64549;DHT22;49838;51.798;10.954;2023-02-13T04:35:02;12.90;44.00
64549;DHT22;49838;51.798;10.954;2023-02-13T04:37:30;12.90;44.10
64549;DHT22;49838;51.798;10.954;2023-02-13T04:39:57;12.90;44.00
64549;DHT22;49838;51.798;10.954;2023-02-13T04:42:25;12.90;44.00
64549;DHT22;49838;51.798;10.954;2023-02-13T04:44:52;12.90;44.00
64549;DHT22;49838;51.798;10.954;2023-02-13T04:47:20;12.90;44.10
64549;DHT22;49838;51.798;10.954;2023-02-13T04:49:47;12.90;44.10
64549;DHT22;49838;51.798;10.954;2023-02-13T04:52:14;12.80;44.00
64549;DHT22;49838;51.798;10.954;2023-02-13T04:54:41;12.80;44.00
64549;DHT22;49838;51.798;10.954;2023-02-13T04:57:08;12.80;44.00
64549;DHT22;49838;51.798;10.954;2023-02-13T04:59:37;12.80;44.00
64549;DHT22;49838;51.798;10.954;2023-02-13T05:02:04;12.90;44.10
64549;DHT22;49838;51.798;10.954;2023-02-13T05:04:32;12.90;44.10
64549;DHT22;49838;51.798;10.954;2023-02-13T05:06:59;12.90;44.00
64549;DHT22;49838;51.798;10.954;2023-02-13T05:09:26;12.90;44.00
64549;DHT22;49838;51.798;10.954;2023-02-13T05:11:53;12.90;44.00
64549;DHT22;49838;51.798;10.954;2023-02-13T05:14:21;12.90;44.00
64549;DHT22;49838;51.798;10.954;2023-02-13T05:16:49;12.90;44.00
64549;DHT22;49838;51.798;10.954;2023-02-13T05:19:17;12.90;44.00
64549;DHT22;49838;51.798;10.954;2023-02-13T05:21:44;12.90;44.00
64549;DHT22;49838;51.798;10.954;2023-02-13T05:24:29;12.90;44.00
64549;DHT22;49838;51.798;10.954;2023-02-13T05:26:56;12.90;44.00
64549;DHT22;49838;51.798;10.954;2023-02-13T05:29:23;12.90;44.00
64549;DHT22;49838;51.798;10.954;2023-02-13T05:31:51;12.90;44.00
64549;DHT22;49838;51.798;10.954;2023-02-13T05:34:20;13.00;44.00
64549;DHT22;49838;51.798;10.954;2023-02-13T05:36:48;13.00;44.00
64549;DHT22;49838;51.798;10.954;2023-02-13T05:39:15;12.90;44.00
64549;DHT22;49838;51.798;10.954;2023-02-13T05:41:43;12.90;44.00
64549;DHT22;49838;51.798;10.954;2023-02-13T05:44:11;12.90;44.00
64549;DHT22;49838;51.798;10.954;2023-02-13T05:46:39;12.90;44.00
64549;DHT22;49838;51.798;10.954;2023-02-13T05:49:09;12.90;44.00
64549;DHT22;49838;51.798;10.954;2023-02-13T05:51:37;12.90;44.00
64549;DHT22;49838;51.798;10.954;2023-02-13T05:54:05;12.80;44.00
64549;DHT22;49838;51.798;10.954;2023-02-13T05:56:32;12.80;44.10
64549;DHT22;49838;51.798;10.954;2023-02-13T05:58:59;12.80;44.10
64549;DHT22;49838;51.798;10.954;2023-02-13T06:01:26;12.80;44.10
64549;DHT22;49838;51.798;10.954;2023-02-13T06:03:53;12.80;44.10
64549;DHT22;49838;51.798;10.954;2023-02-13T06:06:22;12.80;44.10
64549;DHT22;49838;51.798;10.954;2023-02-13T06:08:50;12.80;44.10
64549;DHT22;49838;51.798;10.954;2023-02-13T06:11:17;12.80;44.10
64549;DHT22;49838;51.798;10.954;2023-02-13T06:13:44;12.80;44.10
64549;DHT22;49838;51.798;10.954;2023-02-13T06:16:12;12.80;44.10
64549;DHT22;49838;51.798;10.954;2023-02-13T06:18:39;12.80;44.10
64549;DHT22;49838;51.798;10.954;2023-02-13T06:21:06;12.80;44.10
64549;DHT22;49838;51.798;10.954;2023-02-13T06:23:35;12.80;44.20
64549;DHT22;49838;51.798;10.954;2023-02-13T06:26:03;12.80;44.10
64549;DHT22;49838;51.798;10.954;2023-02-13T06:28:32;12.80;44.10
64549;DHT22;49838;51.798;10.954;2023-02-13T06:30:59;12.80;44.10
64549;DHT22;49838;51.798;10.954;2023-02-13T06:33:27;12.80;44.10
64549;DHT22;49838;51.798;10.954;2023-02-13T06:35:54;12.80;44.10
64549;DHT22;49838;51.798;10.954;2023-02-13T06:38:21;12.80;44.10
64549;DHT22;49838;51.798;10.954;2023-02-13T06:40:50;12.90;44.20
64549;DHT22;49838;51.798;10.954;2023-02-13T06:43:17;12.90;44.20
64549;DHT22;49838;51.798;10.954;2023-02-13T06:45:45;13.00;44.20
64549;DHT22;49838;51.798;10.954;2023-02-13T06:48:12;13.00;44.20
64549;DHT22;49838;51.798;10.954;2023-02-13T06:50:40;13.00;44.20
64549;DHT22;49838;51.798;10.954;2023-02-13T06:53:07;13.00;44.20
64549;DHT22;49838;51.798;10.954;2023-02-13T06:55:34;13.00;44.20
64549;DHT22;49838;51.798;10.954;2023-02-13T06:58:05;13.10;44.30
64549;DHT22;49838;51.798;10.954;2023-02-13T07:00:32;13.10;44.30
64549;DHT22;49838;51.798;10.954;2023-02-13T07:03:00;13.10;44.30
64549;DHT22;49838;51.798;10.954;2023-02-13T07:05:28;13.10;44.30
64549;DHT22;49838;51.798;10.954;2023-02-13T07:07:56;13.10;44.30
64549;DHT22;49838;51.798;10.954;2023-02-13T07:10:23;13.10;44.30
64549;DHT22;49838;51.798;10.954;2023-02-13T07:12:50;13.10;44.20
64549;DHT22;49838;51.798;10.954;2023-02-13T07:15:19;13.20;44.40
64549;DHT22;49838;51.798;10.954;2023-02-13T07:17:46;13.20;44.30
64549;DHT22;49838;51.798;10.954;2023-02-13T07:20:13;13.20;44.30
64549;DHT22;49838;51.798;10.954;2023-02-13T07:22:41;13.20;44.30
64549;DHT22;49838;51.798;10.954;2023-02-13T07:25:08;13.30;44.40
64549;DHT22;49838;51.798;10.954;2023-02-13T07:27:35;13.30;44.30
64549;DHT22;49838;51.798;10.954;2023-02-13T07:30:03;13.30;44.90
64549;DHT22;49838;51.798;10.954;2023-02-13T07:32:32;13.40;44.40
64549;DHT22;49838;51.798;10.954;2023-02-13T07:34:59;13.40;44.40
64549;DHT22;49838;51.798;10.954;2023-02-13T07:37:26;13.40;44.30
64549;DHT22;49838;51.798;10.954;2023-02-13T07:39:54;13.50;44.40
64549;DHT22;49838;51.798;10.954;2023-02-13T07:42:21;13.50;44.40
64549;DHT22;49838;51.798;10.954;2023-02-13T07:44:49;13.60;44.50
64549;DHT22;49838;51.798;10.954;2023-02-13T07:47:16;13.60;44.40
64549;DHT22;49838;51.798;10.954;2023-02-13T07:49:45;13.70;44.40
64549;DHT22;49838;51.798;10.954;2023-02-13T07:52:12;13.70;44.40
64549;DHT22;49838;51.798;10.954;2023-02-13T07:54:39;13.80;44.40
64549;DHT22;49838;51.798;10.954;2023-02-13T07:57:12;13.80;44.40
64549;DHT22;49838;51.798;10.954;2023-02-13T07:59:39;13.90;44.40
64549;DHT22;49838;51.798;10.954;2023-02-13T08:02:08;13.90;44.40
64549;DHT22;49838;51.798;10.954;2023-02-13T08:04:37;14.00;44.50
64549;DHT22;49838;51.798;10.954;2023-02-13T08:07:06;14.00;44.40
64549;DHT22;49838;51.798;10.954;2023-02-13T08:09:33;14.10;44.60
64549;DHT22;49838;51.798;10.954;2023-02-13T08:12:18;14.10;44.40
64549;DHT22;49838;51.798;10.954;2023-02-13T08:14:45;14.20;44.50
64549;DHT22;49838;51.798;10.954;2023-02-13T08:17:13;14.20;44.50
64549;DHT22;49838;51.798;10.954;2023-02-13T08:19:40;14.30;44.60
64549;DHT22;49838;51.798;10.954;2023-02-13T08:22:11;14.30;44.60
64549;DHT22;49838;51.798;10.954;2023-02-13T08:24:38;14.30;44.60
64549;DHT22;49838;51.798;10.954;2023-02-13T08:27:05;14.40;44.60
64549;DHT22;49838;51.798;10.954;2023-02-13T08:29:33;14.40;44.60
64549;DHT22;49838;51.798;10.954;2023-02-13T08:32:00;14.40;44.60
64549;DHT22;49838;51.798;10.954;2023-02-13T08:34:27;14.50;44.60
64549;DHT22;49838;51.798;10.954;2023-02-13T08:36:54;14.60;44.60
64549;DHT22;49838;51.798;10.954;2023-02-13T08:39:23;14.60;44.60
64549;DHT22;49838;51.798;10.954;2023-02-13T08:41:50;14.60;44.60
64549;DHT22;49838;51.798;10.954;2023-02-13T08:44:17;14.70;44.70
64549;DHT22;49838;51.798;10.954;2023-02-13T08:46:45;14.80;44.60
64549;DHT22;49838;51.798;10.954;2023-02-13T08:49:12;14.80;44.60
64549;DHT22;49838;51.798;10.954;2023-02-13T08:51:39;14.80;44.60
64549;DHT22;49838;51.798;10.954;2023-02-13T08:54:07;14.90;44.70
64549;DHT22;49838;51.798;10.954;2023-02-13T08:56:36;15.00;44.70
64549;DHT22;49838;51.798;10.954;2023-02-13T08:59:03;14.90;44.50
64549;DHT22;49838;51.798;10.954;2023-02-13T09:01:31;15.10;44.60
64549;DHT22;49838;51.798;10.954;2023-02-13T09:03:58;15.20;44.70
64549;DHT22;49838;51.798;10.954;2023-02-13T09:06:25;15.20;44.70
64549;DHT22;49838;51.798;10.954;2023-02-13T09:08:53;15.30;44.80
64549;DHT22;49838;51.798;10.954;2023-02-13T09:11:20;15.40;44.80
64549;DHT22;49838;51.798;10.954;2023-02-13T09:13:51;15.50;44.80
64549;DHT22;49838;51.798;10.954;2023-02-13T09:16:19;15.50;44.80
64549;DHT22;49838;51.798;10.954;2023-02-13T09:18:47;15.60;44.80
64549;DHT22;49838;51.798;10.954;2023-02-13T09:21:14;15.70;44.80
64549;DHT22;49838;51.798;10.954;2023-02-13T09:23:42;15.70;44.70
64549;DHT22;49838;51.798;10.954;2023-02-13T09:26:10;15.80;44.70
64549;DHT22;49838;51.798;10.954;2023-02-13T09:28:38;15.80;44.70
64549;DHT22;49838;51.798;10.954;2023-02-13T09:31:08;15.90;44.80
64549;DHT22;49838;51.798;10.954;2023-02-13T09:33:37;15.90;44.80
64549;DHT22;49838;51.798;10.954;2023-02-13T09:36:04;15.90;45.40
64549;DHT22;49838;51.798;10.954;2023-02-13T09:38:32;16.00;44.80
64549;DHT22;49838;51.798;10.954;2023-02-13T09:41:00;16.00;44.80
64549;DHT22;49838;51.798;10.954;2023-02-13T09:43:31;16.10;44.90
64549;DHT22;49838;51.798;10.954;2023-02-13T09:46:06;16.20;44.80
64549;DHT22;49838;51.798;10.954;2023-02-13T09:48:39;16.20;44.70
64549;DHT22;49838;51.798;10.954;2023-02-13T09:51:12;16.30;44.70
64549;DHT22;49838;51.798;10.954;2023-02-13T09:53:43;16.30;44.70
64549;DHT22;49838;51.798;10.954;2023-02-13T09:56:20;16.40;44.80
64549;DHT22;49838;51.798;10.954;2023-02-13T09:58:56;16.50;44.80
64549;DHT22;49838;51.798;10.954;2023-02-13T10:01:31;16.50;44.70
64549;DHT22;49838;51.798;10.954;2023-02-13T10:04:16;16.40;44.60
64549;DHT22;49838;51.798;10.954;2023-02-13T10:07:03;16.50;44.70
64549;DHT22;49838;51.798;10.954;2023-02-13T10:09:41;16.50;44.70
64549;DHT22;49838;51.798;10.954;2023-02-13T10:12:29;16.50;44.70
64549;DHT22;49838;51.798;10.954;2023-02-13T10:15:15;16.60;44.70
64549;DHT22;49838;51.798;10.954;2023-02-13T10:17:52;16.60;44.60
64549;DHT22;49838;51.798;10.954;2023-02-13T10:20:24;16.60;44.50
64549;DHT22;49838;51.798;10.954;2023-02-13T10:22:58;16.60;44.50
64549;DHT22;49838;51.798;10.954;2023-02-13T10:25:30;16.50;44.50
64549;DHT22;49838;51.798;10.954;2023-02-13T10:28:09;16.50;44.40
64549;DHT22;49838;51.798;10.954;2023-02-13T10:30:39;16.40;44.20
64549;DHT22;49838;51.798;10.954;2023-02-13T10:33:18;16.30;44.10
64549;DHT22;49838;51.798;10.954;2023-02-13T10:35:50;16.30;44.20
64549;DHT22;49838;51.798;10.954;2023-02-13T10:38:24;16.30;44.40
64549;DHT22;49838;51.798;10.954;2023-02-13T10:41:02;16.30;44.50
64549;DHT22;49838;51.798;10.954;2023-02-13T10:43:36;16.20;44.40
64549;DHT22;49838;51.798;10.954;2023-02-13T10:46:13;16.20;44.40
64549;DHT22;49838;51.798;10.954;2023-02-13T10:48:56;16.20;44.30
64549;DHT22;49838;51.798;10.954;2023-02-13T10:51:37;16.30;44.40
64549;DHT22;49838;51.798;10.954;2023-02-13T10:54:16;16.30;44.40
64549;DHT22;49838;51.798;10.954;2023-02-13T10:56:53;16.30;44.40
64549;DHT22;49838;51.798;10.954;2023-02-13T10:59:33;16.30;44.30
64549;DHT22;49838;51.798;10.954;2023-02-13T11:02:19;16.30;44.30
64549;DHT22;49838;51.798;10.954;2023-02-13T11:04:50;16.30;44.30
64549;DHT22;49838;51.798;10.954;2023-02-13T11:07:19;16.30;44.20
64549;DHT22;49838;51.798;10.954;2023-02-13T11:09:49;16.30;44.30
64549;DHT22;49838;51.798;10.954;2023-02-13T11:12:23;16.30;44.20
64549;DHT22;49838;51.798;10.954;2023-02-13T11:14:52;16.30;44.30
64549;DHT22;49838;51.798;10.954;2023-02-13T11:17:21;16.30;44.30
64549;DHT22;49838;51.798;10.954;2023-02-13T11:19:51;16.30;44.20
64549;DHT22;49838;51.798;10.954;2023-02-13T11:22:27;16.30;44.20
64549;DHT22;49838;51.798;10.954;2023-02-13T11:25:02;16.30;44.30
64549;DHT22;49838;51.798;10.954;2023-02-13T11:27:33;16.40;44.40
64549;DHT22;49838;51.798;10.954;2023-02-13T11:30:03;16.40;44.30
64549;DHT22;49838;51.798;10.954;2023-02-13T11:32:33;16.40;44.30
64549;DHT22;49838;51.798;10.954;2023-02-13T11:38:12;16.50;44.30
64549;DHT22;49838;51.798;10.954;2023-02-13T11:40:47;16.60;44.40
64549;DHT22;49838;51.798;10.954;2023-02-13T11:43:17;16.70;44.40
64549;DHT22;49838;51.798;10.954;2023-02-13T11:45:59;16.70;44.30
64549;DHT22;49838;51.798;10.954;2023-02-13T11:48:28;16.80;44.40
64549;DHT22;49838;51.798;10.954;2023-02-13T11:50:57;16.80;44.40
64549;DHT22;49838;51.798;10.954;2023-02-13T11:53:26;16.90;44.40
64549;DHT22;49838;51.798;10.954;2023-02-13T11:56:00;17.10;44.60
64549;DHT22;49838;51.798;10.954;2023-02-13T11:58:32;17.00;44.50
64549;DHT22;49838;51.798;10.954;2023-02-13T12:03:56;17.10;44.50
64549;DHT22;49838;51.798;10.954;2023-02-13T12:06:29;17.20;44.60
64549;DHT22;49838;51.798;10.954;2023-02-13T12:09:04;17.20;44.60
64549;DHT22;49838;51.798;10.954;2023-02-13T12:11:39;17.30;44.60
64549;DHT22;49838;51.798;10.954;2023-02-13T12:14:10;17.30;44.50
64549;DHT22;49838;51.798;10.954;2023-02-13T12:16:43;17.30;44.50
64549;DHT22;49838;51.798;10.954;2023-02-13T12:19:16;17.30;44.40
64549;DHT22;49838;51.798;10.954;2023-02-13T12:21:54;17.30;44.50
64549;DHT22;49838;51.798;10.954;2023-02-13T12:24:40;17.30;44.50
64549;DHT22;49838;51.798;10.954;2023-02-13T12:27:17;17.40;44.40
64549;DHT22;49838;51.798;10.954;2023-02-13T12:29:53;17.40;44.40
64549;DHT22;49838;51.798;10.954;2023-02-13T12:32:36;17.40;44.40
64549;DHT22;49838;51.798;10.954;2023-02-13T12:35:17;17.40;44.40
64549;DHT22;49838;51.798;10.954;2023-02-13T12:38:02;17.40;44.40
64549;DHT22;49838;51.798;10.954;2023-02-13T12:40:36;17.40;44.40
64549;DHT22;49838;51.798;10.954;2023-02-13T12:43:14;17.40;44.50
64549;DHT22;49838;51.798;10.954;2023-02-13T12:46:04;17.50;44.50
64549;DHT22;49838;51.798;10.954;2023-02-13T12:48:38;17.50;45.10
64549;DHT22;49838;51.798;10.954;2023-02-13T12:51:18;17.60;44.40
64549;DHT22;49838;51.798;10.954;2023-02-13T12:54:04;17.50;44.20
64549;DHT22;49838;51.798;10.954;2023-02-13T12:56:48;17.40;44.20
64549;DHT22;49838;51.798;10.954;2023-02-13T12:59:26;17.40;44.30
64549;DHT22;49838;51.798;10.954;2023-02-13T13:05:07;17.60;44.50
64549;DHT22;49838;51.798;10.954;2023-02-13T13:07:47;17.60;44.40
64549;DHT22;49838;51.798;10.954;2023-02-13T13:10:35;17.60;44.40
64549;DHT22;49838;51.798;10.954;2023-02-13T13:13:12;17.70;44.40
64549;DHT22;49838;51.798;10.954;2023-02-13T13:15:47;17.60;44.30
64549;DHT22;49838;51.798;10.954;2023-02-13T13:18:25;17.70;44.40
64549;DHT22;49838;51.798;10.954;2023-02-13T13:21:04;17.70;44.40
64549;DHT22;49838;51.798;10.954;2023-02-13T13:23:45;17.70;44.10
64549;DHT22;49838;51.798;10.954;2023-02-13T13:26:21;17.60;44.00
64549;DHT22;49838;51.798;10.954;2023-02-13T13:28:57;17.50;44.00
64549;DHT22;49838;51.798;10.954;2023-02-13T13:31:27;17.40;44.10
64549;DHT22;49838;51.798;10.954;2023-02-13T13:33:55;17.40;44.20
64549;DHT22;49838;51.798;10.954;2023-02-13T13:36:30;17.30;44.10
64549;DHT22;49838;51.798;10.954;2023-02-13T13:39:04;17.30;44.20
64549;DHT22;49838;51.798;10.954;2023-02-13T13:41:40;17.40;44.30
64549;DHT22;49838;51.798;10.954;2023-02-13T13:44:19;17.40;44.30
64549;DHT22;49838;51.798;10.954;2023-02-13T13:47:03;17.40;44.20
64549;DHT22;49838;51.798;10.954;2023-02-13T13:49:40;17.40;44.30
64549;DHT22;49838;51.798;10.954;2023-02-13T13:52:21;17.40;44.10
64549;DHT22;49838;51.798;10.954;2023-02-13T13:54:50;17.40;44.00
64549;DHT22;49838;51.798;10.954;2023-02-13T13:57:19;17.40;44.00
64549;DHT22;49838;51.798;10.954;2023-02-13T14:05:59;17.30;44.00
64549;DHT22;49838;51.798;10.954;2023-02-13T14:11:24;17.20;44.10
64549;DHT22;49838;51.798;10.954;2023-02-13T14:13:56;17.10;43.80
64549;DHT22;49838;51.798;10.954;2023-02-13T14:16:36;17.10;44.00
64549;DHT22;49838;51.798;10.954;2023-02-13T14:19:05;17.10;44.00
64549;DHT22;49838;51.798;10.954;2023-02-13T14:21:50;17.10;43.80
64549;DHT22;49838;51.798;10.954;2023-02-13T14:24:18;17.10;44.00
64549;DHT22;49838;51.798;10.954;2023-02-13T14:26:48;17.10;43.80
64549;DHT22;49838;51.798;10.954;2023-02-13T14:29:23;17.00;43.50
64549;DHT22;49838;51.798;10.954;2023-02-13T14:32:13;16.90;43.70
64549;DHT22;49838;51.798;10.954;2023-02-13T14:34:50;16.80;43.80
64549;DHT22;49838;51.798;10.954;2023-02-13T14:37:25;16.80;43.60
64549;DHT22;49838;51.798;10.954;2023-02-13T14:40:11;16.80;43.80
64549;DHT22;49838;51.798;10.954;2023-02-13T14:42:54;16.70;43.70
64549;DHT22;49838;51.798;10.954;2023-02-13T14:45:26;16.60;43.60
64549;DHT22;49838;51.798;10.954;2023-02-13T14:48:01;16.60;43.70
64549;DHT22;49838;51.798;10.954;2023-02-13T14:50:34;16.50;43.70
64549;DHT22;49838;51.798;10.954;2023-02-13T14:53:15;16.40;43.70
64549;DHT22;49838;51.798;10.954;2023-02-13T14:55:46;16.40;43.70
64549;DHT22;49838;51.798;10.954;2023-02-13T14:58:20;16.30;43.60
64549;DHT22;49838;51.798;10.954;2023-02-13T15:00:53;16.30;43.60
64549;DHT22;49838;51.798;10.954;2023-02-13T15:03:26;16.20;43.60
64549;DHT22;49838;51.798;10.954;2023-02-13T15:05:56;16.20;43.80
64549;DHT22;49838;51.798;10.954;2023-02-13T15:08:29;16.10;43.60
64549;DHT22;49838;51.798;10.954;2023-02-13T15:11:00;16.10;43.70
64549;DHT22;49838;51.798;10.954;2023-02-13T15:13:31;16.00;43.60
64549;DHT22;49838;51.798;10.954;2023-02-13T15:16:02;16.00;43.70
64549;DHT22;49838;51.798;10.954;2023-02-13T15:18:33;15.90;43.60
64549;DHT22;49838;51.798;10.954;2023-02-13T15:21:07;15.90;43.60
64549;DHT22;49838;51.798;10.954;2023-02-13T15:23:40;15.80;43.60
64549;DHT22;49838;51.798;10.954;2023-02-13T15:26:17;15.80;43.70
64549;DHT22;49838;51.798;10.954;2023-02-13T15:28:56;15.80;43.70
64549;DHT22;49838;51.798;10.954;2023-02-13T15:31:28;15.70;43.70
64549;DHT22;49838;51.798;10.954;2023-02-13T15:33:57;15.70;43.80
64549;DHT22;49838;51.798;10.954;2023-02-13T15:36:33;15.60;43.70
64549;DHT22;49838;51.798;10.954;2023-02-13T15:39:03;15.60;43.60
64549;DHT22;49838;51.798;10.954;2023-02-13T15:41:36;15.60;43.70
64549;DHT22;49838;51.798;10.954;2023-02-13T15:44:06;15.50;43.70
64549;DHT22;49838;51.798;10.954;2023-02-13T15:46:43;15.50;43.80
64549;DHT22;49838;51.798;10.954;2023-02-13T15:49:16;15.40;43.80
64549;DHT22;49838;51.798;10.954;2023-02-13T15:51:47;15.50;43.90
64549;DHT22;49838;51.798;10.954;2023-02-13T15:54:23;15.50;43.80
64549;DHT22;49838;51.798;10.954;2023-02-13T15:56:52;15.50;43.80
64549;DHT22;49838;51.798;10.954;2023-02-13T15:59:21;15.50;43.90
64549;DHT22;49838;51.798;10.954;2023-02-13T16:01:51;15.50;43.80
64549;DHT22;49838;51.798;10.954;2023-02-13T16:04:19;15.50;43.80
64549;DHT22;49838;51.798;10.954;2023-02-13T16:06:49;15.50;43.80
64549;DHT22;49838;51.798;10.954;2023-02-13T16:09:23;15.50;43.80
64549;DHT22;49838;51.798;10.954;2023-02-13T16:11:55;15.50;43.80